Date,TemperatureHighF,TemperatureAvgF,TemperatureLowF,DewpointHighF,DewpointAvgF,DewpointLowF,HumidityHigh,HumidityAvg,HumidityLow,PressureMaxIn,PressureMinIn,WindSpeedMaxMPH,WindSpeedAvgMPH,GustSpeedMaxMPH,PrecipitationSumIn
2013-1-1,67.5,56.4,45.1,57.6,51.4,43.5,95,84,67,30.17,29.92,7,0,7,0.00
2013-1-2,63.7,58.1,51.4,59.5,55.1,49.6,95,90,81,30.12,29.87,10,1,10,0.01
2013-1-3,51.8,49.8,45.0,50.7,48.4,43.3,97,95,93,30.25,30.06,9,0,9,0.15
2013-1-4,54.7,43.8,35.4,43.3,38.1,34.2,97,82,49,30.33,30.23,7,0,7,0.00
2013-1-5,56.7,43.6,31.6,41.4,34.6,29.3,97,74,38,30.40,30.27,7,0,7,0.00
2013-1-6,54.7,49.1,45.3,47.5,44.7,41.4,96,85,66,30.28,30.08,4,0,5,0.03
2013-1-7,58.3,48.1,41.4,44.2,38.4,34.9,91,71,46,30.38,30.15,14,1,14,0.00
2013-1-8,67.8,53.1,42.3,54.7,46.3,37.9,95,79,59,30.38,30.29,5,0,6,0.00
2013-1-9,72.9,61.3,52.5,63.5,57.1,50.2,97,87,71,30.37,30.29,4,0,5,0.00
2013-1-10,71.6,59.9,52.3,62.1,56.6,51.4,99,90,60,30.43,30.33,9,1,9,0.04
2013-1-11,76.6,63.0,54.9,66.9,59.4,53.4,98,89,63,30.33,30.15,7,0,7,0.00
2013-1-12,80.6,67.0,57.4,66.6,61.7,56.5,99,85,56,30.19,30.09,6,0,6,0.01
2013-1-13,78.3,63.9,53.1,66.2,59.4,52.5,99,87,61,30.16,30.05,8,0,8,0.00
2013-1-14,80.4,66.5,57.0,67.6,61.7,56.5,99,86,59,30.18,30.08,12,1,12,0.01
2013-1-15,79.3,66.2,56.7,66.9,61.5,56.1,99,86,55,30.14,30.02,10,0,11,0.00
2013-1-16,81.3,68.4,59.5,66.0,62.8,58.6,98,84,56,30.05,29.93,12,1,12,0.00
2013-1-17,79.9,62.4,46.8,63.9,56.5,40.3,98,83,55,30.04,29.71,20,2,20,0.13
2013-1-18,56.1,46.2,38.5,42.3,33.3,23.9,92,64,30,30.48,30.04,13,2,15,0.00
2013-1-19,64.0,49.2,35.4,48.0,39.0,29.5,94,69,47,30.47,30.21,8,1,8,0.00
2013-1-20,68.7,51.8,40.8,47.3,39.1,26.8,98,69,21,30.22,30.02,14,1,14,0.00
2013-1-21,67.1,51.3,34.9,44.2,36.7,32.5,95,63,28,30.09,29.94,13,1,15,0.00
2013-1-22,54.9,46.1,34.3,34.0,27.3,24.4,79,49,32,30.26,30.02,9,1,9,0.00
2013-1-23,54.1,41.3,30.7,37.0,27.2,17.6,86,60,31,30.36,30.16,8,1,8,0.00
2013-1-24,67.8,50.4,33.4,47.1,35.5,18.1,81,59,35,30.46,30.08,15,2,16,0.00
2013-1-25,50.0,38.5,28.6,39.6,25.7,13.1,68,60,51,30.45,30.13,8,-2,10,0.00
2013-1-26,61.2,46.0,36.3,43.3,35.3,29.3,90,68,40,30.31,30.10,6,1,7,0.00
2013-1-27,55.9,43.2,33.4,40.1,35.0,28.2,89,74,50,30.50,30.31,9,-3,10,0.00
2013-1-28,67.3,50.5,40.5,54.9,44.3,35.6,96,80,62,30.46,30.26,7,1,7,0.00
2013-1-29,78.4,60.6,46.0,65.3,56.3,45.0,98,87,59,30.27,30.09,10,1,11,0.00
2013-1-30,76.6,69.3,60.4,67.3,64.6,59.2,98,86,69,30.09,29.60,23,3,25,0.08
2013-1-31,61.5,50.1,40.8,59.4,34.7,23.9,96,58,30,30.17,29.70,23,3,23,0.27
2013-2-1,59.2,45.5,32.4,34.3,26.6,17.6,70,50,23,30.35,30.14,17,2,18,0.00
2013-2-2,61.0,43.5,28.2,40.3,29.4,15.8,83,59,40,30.37,30.08,10,1,12,0.00
2013-2-3,61.5,48.9,39.0,38.3,34.4,31.3,81,60,35,30.08,29.90,14,2,14,0.00
2013-2-4,57.2,44.6,31.1,39.6,33.0,28.8,92,67,36,30.14,30.02,7,0,7,0.00
2013-2-5,70.2,52.6,35.2,50.5,43.6,34.0,96,75,39,30.06,29.92,14,1,14,0.00
2013-2-6,73.4,57.0,44.2,53.4,47.3,41.2,97,75,33,30.17,30.00,7,1,8,0.00
2013-2-7,59.2,52.5,44.8,55.8,51.1,43.3,98,95,85,30.15,29.68,9,1,9,1.80
2013-2-8,63.7,54.9,47.8,55.0,49.6,46.0,98,83,64,30.04,29.70,10,2,10,0.04
2013-2-9,61.2,49.3,36.0,48.6,34.1,25.0,93,61,26,30.33,30.04,10,1,10,0.00
2013-2-10,66.6,51.1,33.4,53.2,44.7,31.8,94,80,58,30.40,30.18,14,1,14,0.00
2013-2-11,65.8,61.2,54.9,63.5,60.0,52.0,98,96,90,30.22,30.02,16,1,16,1.58
2013-2-12,62.2,57.0,51.3,59.0,54.2,47.7,99,91,61,30.11,29.87,9,1,9,1.64
2013-2-13,72.3,57.4,48.9,64.8,53.0,48.0,99,87,58,29.89,29.67,17,2,17,0.42
2013-2-14,54.9,49.1,42.6,48.6,42.8,39.4,95,80,60,30.06,29.83,8,0,9,0.00
2013-2-15,63.3,48.4,35.2,47.5,40.3,34.5,98,77,40,30.10,29.95,9,0,9,0.00
2013-2-16,54.1,41.8,34.9,44.2,38.3,29.5,98,88,63,30.03,29.82,15,1,15,0.05
2013-2-17,47.7,36.8,28.6,30.6,20.5,12.6,87,56,25,30.31,30.03,13,2,14,0.00
2013-2-18,57.2,39.8,26.1,32.2,26.0,21.6,86,62,27,30.42,30.25,13,1,13,0.00
2013-2-19,64.6,49.3,35.8,55.6,46.3,32.0,98,90,61,30.25,29.96,12,1,12,0.27
2013-2-20,60.4,47.9,32.4,47.7,35.0,27.0,98,65,29,30.15,30.02,8,1,8,0.01
2013-2-21,66.7,48.8,34.5,45.5,39.0,33.3,96,73,35,30.18,30.06,9,1,9,0.00
2013-2-22,57.9,50.6,45.3,57.0,47.4,42.4,98,89,74,30.19,30.04,12,1,12,0.41
2013-2-23,60.8,48.3,43.7,60.3,47.7,43.0,99,98,97,30.04,29.77,9,0,9,1.57
2013-2-24,67.1,54.0,45.7,53.6,48.2,43.5,99,83,44,29.99,29.74,8,1,8,0.00
2013-2-25,49.1,45.7,41.9,46.9,43.5,38.5,98,92,79,30.08,29.94,10,1,13,0.17
2013-2-26,73.9,61.1,46.2,68.2,57.9,44.2,99,90,73,29.95,29.55,29,1,29,2.16
2013-2-27,60.4,53.1,47.5,54.7,43.4,38.8,94,70,52,29.89,29.68,11,2,11,0.00
2013-2-28,61.3,51.8,45.3,42.4,38.0,32.5,84,62,37,29.89,29.77,13,2,14,0.00
2013-3-1,55.0,46.1,39.0,36.7,33.4,31.1,82,62,44,29.95,29.85,9,1,11,0.00
2013-3-2,54.0,43.4,36.5,36.1,34.1,31.3,88,71,45,29.92,29.83,12,2,12,0.00
2013-3-3,49.3,40.1,30.9,35.2,28.9,26.2,92,66,43,30.01,29.89,11,1,11,0.00
2013-3-4,56.1,42.2,27.9,37.2,26.2,20.7,86,58,26,30.17,30.00,10,1,10,0.00
2013-3-5,68.7,54.9,39.6,56.7,44.1,37.4,94,70,34,30.12,29.69,17,1,17,0.03
2013-3-6,58.6,48.0,40.5,54.9,32.0,25.0,88,55,37,30.07,29.68,21,4,22,0.00
2013-3-7,61.0,46.3,31.8,36.9,32.9,28.0,87,63,37,30.22,30.06,9,1,10,0.00
2013-3-8,61.0,48.0,37.9,35.6,30.0,24.8,85,53,27,30.27,30.13,11,2,11,0.00
2013-3-9,65.1,49.5,34.9,43.2,35.8,28.9,92,62,36,30.31,30.20,9,1,9,0.00
2013-3-10,70.7,52.4,36.3,47.5,40.0,32.5,96,67,35,30.27,30.18,9,1,10,0.00
2013-3-11,71.4,59.9,45.1,59.9,52.6,39.2,96,78,56,30.20,29.89,14,2,14,0.00
2013-3-12,72.5,64.7,52.9,64.6,58.4,46.2,96,81,47,29.93,29.78,14,2,15,0.10
2013-3-13,67.3,55.1,41.9,46.4,34.8,26.8,87,52,23,30.11,29.93,15,2,15,0.00
2013-3-14,56.5,46.1,37.2,32.5,25.2,20.8,82,46,27,30.30,30.08,11,2,11,0.00
2013-3-15,68.9,50.8,32.9,46.4,35.4,27.3,91,61,29,30.22,30.01,9,1,10,0.00
2013-3-16,80.2,66.1,53.4,48.7,45.9,43.3,78,51,29,30.02,29.83,14,2,18,0.00
2013-3-17,79.2,66.2,57.0,57.0,51.9,45.0,82,61,43,30.01,29.91,10,2,13,0.00
2013-3-18,67.5,61.7,56.5,61.3,57.5,52.7,97,86,72,30.06,29.83,11,1,17,0.29
2013-3-19,75.9,61.7,52.9,58.5,50.2,32.7,98,71,26,29.98,29.77,10,1,12,0.13
2013-3-20,64.2,54.7,41.4,37.9,30.0,21.0,86,41,22,30.09,29.81,12,1,14,0.00
2013-3-21,58.5,47.4,37.0,37.6,26.3,13.3,91,49,18,29.94,29.77,16,2,16,0.00
2013-3-22,56.1,45.6,36.3,39.6,26.7,19.4,73,49,31,30.09,29.93,7,1,8,0.00
2013-3-23,55.8,47.7,41.7,53.8,43.9,37.4,96,87,63,30.05,29.86,7,0,9,0.35
2013-3-24,59.9,51.5,45.9,58.8,50.5,44.4,98,96,92,29.87,29.45,14,2,14,2.76
2013-3-25,56.1,48.9,42.1,46.6,34.8,24.3,97,62,32,29.95,29.56,21,3,21,0.00
2013-3-26,52.2,43.0,33.6,31.6,28.0,24.8,76,56,40,30.16,29.95,12,2,12,0.00
2013-3-27,59.5,45.7,31.3,35.6,30.1,26.8,88,59,31,30.26,30.14,11,1,12,0.00
2013-3-28,61.2,48.1,36.7,35.6,29.7,25.7,91,53,27,30.29,30.16,11,1,11,0.00
2013-3-29,66.9,50.3,33.8,41.9,33.5,26.4,92,59,23,30.34,30.18,10,1,10,0.00
2013-3-30,74.8,59.7,48.0,51.6,46.5,41.9,91,65,33,30.23,30.04,11,1,11,0.00
2013-3-31,76.3,63.7,56.1,60.4,56.0,51.3,97,77,56,30.07,29.86,16,1,16,0.39
2013-4-1,76.1,64.5,55.9,63.7,59.0,54.3,98,84,54,29.93,29.83,12,1,12,0.16
2013-4-2,72.0,57.2,46.8,54.5,47.7,44.6,95,73,42,30.12,29.93,11,1,12,0.00
2013-4-3,70.2,57.0,46.0,54.9,48.3,43.9,98,75,48,30.23,30.05,10,1,10,0.00
2013-4-4,55.8,52.7,48.0,54.9,49.4,44.4,97,89,73,30.22,29.83,10,1,12,0.49
2013-4-5,59.2,50.0,43.7,50.2,46.4,42.4,97,88,71,30.02,29.85,9,1,10,0.09
2013-4-6,73.8,56.3,41.4,51.6,45.5,40.6,98,72,34,30.22,30.01,14,1,14,0.09
2013-4-7,75.6,60.4,46.8,61.0,53.7,45.5,98,81,54,30.23,30.12,12,1,15,0.00
2013-4-8,80.8,64.9,49.8,63.0,57.6,49.1,98,80,49,30.17,30.09,12,1,15,0.00
2013-4-9,83.3,68.6,54.7,66.9,60.6,54.0,98,79,47,30.20,30.10,9,1,10,0.00
2013-4-10,82.9,69.1,56.5,67.6,61.3,55.9,99,79,47,30.15,30.00,13,1,14,0.00
2013-4-11,82.9,70.6,58.8,72.0,66.2,57.9,98,87,68,30.00,29.82,14,1,17,0.00
2013-4-12,81.0,72.0,66.6,73.8,69.9,65.5,99,93,77,29.84,29.71,16,1,16,0.70
2013-4-13,76.5,63.6,49.8,65.5,52.9,48.0,98,72,39,30.01,29.81,7,0,9,0.29
2013-4-14,72.1,62.0,50.7,63.1,57.8,49.8,98,87,65,30.07,29.93,10,1,11,0.03
2013-4-15,71.2,65.6,60.4,66.6,63.6,59.5,98,93,81,30.14,29.86,10,0,11,0.08
2013-4-16,79.5,68.9,57.9,67.6,62.1,57.4,99,80,56,30.23,30.13,9,0,9,0.03
2013-4-17,84.0,68.7,57.0,68.9,62.2,56.5,99,82,54,30.22,30.11,9,1,9,0.00
2013-4-18,81.7,70.4,60.6,69.6,64.8,59.7,98,84,60,30.13,30.01,14,1,14,0.01
2013-4-19,82.4,72.5,66.7,73.0,68.9,65.3,98,89,73,30.01,29.81,16,1,18,0.59
2013-4-20,66.2,55.5,46.2,65.1,50.2,43.3,97,84,56,30.23,29.91,8,1,8,0.45
2013-4-21,70.3,56.5,43.3,53.6,47.5,41.5,96,74,50,30.32,30.22,12,2,17,0.00
2013-4-22,69.1,58.2,48.7,53.6,46.6,36.9,81,66,56,30.29,30.11,11,2,11,0.00
2013-4-23,66.4,58.3,53.1,56.8,52.3,47.7,96,81,69,30.20,30.11,8,1,9,0.00
2013-4-24,79.0,64.0,47.1,62.8,56.0,46.4,98,78,47,30.17,30.03,10,1,10,0.00
2013-4-25,81.1,68.0,59.9,69.3,63.9,59.0,98,88,60,30.21,30.06,7,0,7,0.54
2013-4-26,77.2,66.0,55.4,62.2,53.9,42.3,98,70,31,30.35,30.20,11,1,11,0.01
2013-4-27,73.8,62.9,52.9,62.8,53.0,46.4,96,74,39,30.33,30.21,8,0,8,0.01
2013-4-28,75.9,66.3,55.2,66.2,61.2,51.1,96,84,68,30.22,30.02,15,1,15,0.00
2013-4-29,79.9,67.7,62.2,70.3,65.2,60.6,97,92,68,30.04,29.93,9,0,9,1.42
2013-4-30,74.8,66.3,62.2,68.4,64.2,60.4,98,93,77,30.08,29.94,6,0,7,0.04
2013-5-1,72.3,64.9,59.0,63.1,60.5,57.6,96,86,68,30.17,30.06,10,1,10,0.01
2013-5-2,73.6,67.2,63.3,66.6,62.7,58.1,94,86,74,30.16,30.09,12,2,12,0.03
2013-5-3,70.2,63.3,59.0,63.5,57.9,49.1,96,83,62,30.10,30.00,25,2,25,0.03
2013-5-4,67.5,60.8,54.3,61.2,56.5,50.0,93,86,67,30.00,29.89,12,2,13,0.07
2013-5-5,72.0,64.8,61.3,67.3,63.0,59.5,97,94,83,29.89,29.77,11,2,14,1.04
2013-5-6,73.0,64.4,55.0,63.1,56.4,49.5,98,78,48,29.91,29.81,7,0,8,0.00
2013-5-7,70.9,59.8,52.3,61.9,56.2,50.4,97,88,61,29.96,29.88,10,0,10,0.15
2013-5-8,78.8,64.6,49.6,62.2,57.1,49.1,99,79,49,30.03,29.94,9,0,11,0.01
2013-5-9,84.7,71.3,58.5,66.2,61.5,57.6,97,74,45,30.07,30.00,7,0,7,0.00
2013-5-10,88.7,73.5,60.3,68.5,62.7,59.2,97,72,43,30.08,29.98,11,0,11,0.00
2013-5-11,83.7,74.5,66.7,69.3,66.9,63.5,97,79,56,30.01,29.85,7,0,7,0.00
2013-5-12,82.8,73.6,62.1,69.4,61.5,50.7,94,68,39,29.99,29.83,9,1,9,0.00
2013-5-13,73.0,63.5,52.9,50.7,45.2,39.9,86,53,32,30.13,29.97,7,1,7,0.00
2013-5-14,75.4,62.2,47.8,54.0,48.6,42.3,94,65,32,30.24,30.11,9,1,10,0.00
2013-5-15,86.5,70.7,55.2,65.8,58.7,52.9,94,69,43,30.16,29.98,8,1,9,0.00
2013-5-16,86.4,73.4,62.2,68.7,64.1,57.9,89,74,52,30.05,29.97,6,0,6,0.00
2013-5-17,88.9,75.0,62.4,69.4,65.1,61.5,98,74,46,30.09,30.01,9,0,9,0.00
2013-5-18,86.5,74.8,64.6,71.8,67.3,63.5,98,79,52,30.13,30.04,10,1,10,0.00
2013-5-19,84.0,75.1,68.5,72.3,69.5,66.4,96,83,66,30.12,30.03,10,1,11,0.00
2013-5-20,83.1,72.9,68.2,75.7,70.8,67.6,98,93,73,30.09,30.00,10,0,11,0.44
2013-5-21,77.4,71.5,67.8,73.9,69.8,65.7,99,95,77,30.06,29.97,8,0,8,0.33
2013-5-22,85.1,74.0,64.8,73.0,68.5,64.4,99,85,58,30.01,29.90,9,1,9,0.00
2013-5-23,86.7,76.0,66.4,73.2,69.0,65.8,99,81,56,29.95,29.81,7,0,7,0.00
2013-5-24,83.1,73.5,62.6,68.9,58.3,41.2,95,62,30,30.15,29.84,9,1,9,0.00
2013-5-25,76.8,65.1,52.0,54.7,47.0,40.6,87,56,29,30.28,30.14,7,0,8,0.00
2013-5-26,82.9,68.6,54.0,62.2,57.9,52.9,97,72,44,30.25,30.12,8,0,8,0.00
2013-5-27,85.6,71.6,58.5,67.5,62.8,57.2,97,76,51,30.23,30.14,9,1,9,0.00
2013-5-28,85.5,73.2,61.9,70.0,64.6,60.8,97,77,48,30.22,30.16,11,1,11,0.00
2013-5-29,82.8,69.1,61.7,70.0,64.8,60.6,98,88,60,30.23,30.14,8,0,8,0.00
2013-5-30,87.1,74.7,63.0,73.6,68.3,62.1,98,82,58,30.24,30.14,11,1,11,0.00
2013-5-31,88.3,76.7,67.5,73.9,69.9,66.9,98,81,54,30.20,30.11,12,1,12,0.00
2013-6-1,87.8,76.3,65.1,73.2,69.3,64.6,98,81,56,30.14,30.05,11,1,11,0.00
2013-6-2,88.3,76.4,65.8,75.9,71.3,65.1,98,85,63,30.08,29.91,11,1,15,0.02
2013-6-3,82.0,75.9,71.1,76.6,73.2,67.8,97,91,83,29.95,29.83,8,0,8,0.44
2013-6-4,90.3,77.4,68.7,78.6,73.1,68.0,98,88,62,30.01,29.89,10,1,10,0.01
2013-6-5,82.9,74.7,71.1,76.5,72.7,69.4,98,94,80,30.03,29.93,9,1,10,0.98
2013-6-6,78.4,74.2,69.8,75.4,72.3,69.3,99,94,86,29.96,29.68,9,0,9,1.31
2013-6-7,84.0,77.0,72.9,75.6,73.5,71.8,98,89,72,29.85,29.47,16,1,16,0.20
2013-6-8,87.6,79.0,72.7,77.4,73.6,71.2,97,85,63,30.08,29.83,7,-3,8,0.05
2013-6-9,88.0,79.3,73.9,77.5,74.6,73.0,98,86,69,30.12,30.03,11,1,11,0.00
2013-6-10,88.2,78.8,69.3,78.8,74.7,68.0,98,88,73,30.09,29.95,13,1,13,0.40
2013-6-11,87.8,77.5,70.3,77.5,73.6,69.4,98,89,68,30.02,29.90,9,0,9,0.77
2013-6-12,92.5,82.2,72.0,79.0,75.3,71.6,99,82,54,29.98,29.88,5,0,5,0.00
2013-6-13,94.6,85.5,76.6,81.0,77.2,74.3,98,78,57,29.90,29.70,7,0,8,0.00
2013-6-14,87.3,79.6,68.5,74.8,66.2,61.3,90,66,45,29.98,29.70,7,1,8,0.00
2013-6-15,85.8,74.2,64.8,67.6,63.3,57.6,95,71,47,30.11,29.98,9,1,10,0.00
2013-6-16,87.6,74.5,61.5,69.8,64.9,60.1,96,74,47,30.15,30.04,10,0,10,0.00
2013-6-17,89.1,76.8,67.5,77.7,71.8,66.2,97,86,59,30.07,29.94,8,0,8,0.28
2013-6-18,88.3,76.7,70.0,78.4,73.3,68.5,99,90,66,30.00,29.83,13,0,14,1.38
2013-6-19,86.4,76.6,72.9,77.2,74.2,71.4,98,93,71,30.03,29.87,7,0,8,0.84
2013-6-20,82.0,75.5,68.5,72.7,69.9,63.3,98,84,57,30.14,30.01,10,1,10,0.00
2013-6-21,85.3,76.0,66.9,73.8,69.0,63.5,91,79,64,30.16,30.09,9,0,9,0.00
2013-6-22,84.9,76.3,70.0,74.7,71.9,69.1,98,87,67,30.15,30.08,9,0,10,0.01
2013-6-23,89.2,78.2,71.8,78.6,74.4,71.1,98,89,62,30.17,30.09,6,0,7,0.60
2013-6-24,85.8,78.4,72.7,78.4,75.2,71.8,98,90,73,30.20,30.11,6,0,8,0.14
2013-6-25,90.1,79.9,72.7,78.4,74.9,71.2,98,86,61,30.15,30.03,10,0,10,0.01
2013-6-26,88.9,78.0,71.4,78.3,73.3,69.6,97,86,66,30.06,29.94,12,1,12,0.03
2013-6-27,91.8,79.0,72.9,80.6,75.8,69.3,98,91,66,29.98,29.77,11,0,15,0.82
2013-6-28,91.0,81.5,73.2,82.6,76.8,72.0,98,86,71,29.81,29.64,8,0,9,0.11
2013-6-29,88.2,79.3,72.3,78.3,73.9,70.2,95,84,70,29.75,29.67,8,0,9,0.02
2013-6-30,85.8,75.3,70.3,79.2,73.6,69.6,98,95,76,29.84,29.71,8,0,8,1.56
2013-7-1,88.0,77.6,71.1,79.5,75.0,70.3,99,92,70,29.99,29.80,14,0,14,0.42
2013-7-2,79.9,75.8,73.2,76.6,74.5,72.7,98,96,87,30.13,29.98,10,0,10,1.35
2013-7-3,83.5,77.2,73.6,79.9,75.0,72.3,98,93,83,30.19,30.10,10,0,10,1.47
2013-7-4,88.3,79.4,73.2,79.3,75.6,72.3,98,89,67,30.21,30.14,16,1,16,0.11
2013-7-5,89.6,79.3,73.9,79.0,76.0,73.4,99,90,68,30.21,30.14,14,1,14,0.13
2013-7-6,89.1,78.7,72.5,78.1,74.7,72.1,99,88,65,30.20,30.11,12,1,17,0.07
2013-7-7,89.1,79.2,71.2,77.2,73.8,70.5,98,85,62,30.17,30.08,12,1,12,0.00
2013-7-8,88.0,78.7,70.5,77.7,73.6,69.8,98,85,63,30.18,30.09,6,0,8,0.00
2013-7-9,89.2,79.9,71.8,78.6,74.1,71.1,98,84,62,30.17,30.07,9,0,9,0.00
2013-7-10,90.9,80.6,72.1,77.2,73.7,71.2,98,81,56,30.12,29.95,10,0,10,0.00
2013-7-11,90.7,80.6,73.2,79.0,74.8,71.8,97,83,63,29.99,29.86,10,0,10,0.00
2013-7-12,79.7,75.8,72.9,75.9,73.7,70.7,98,93,87,29.94,29.85,5,0,6,0.11
2013-7-13,86.4,77.0,73.2,78.6,74.8,72.3,98,93,77,30.05,29.90,8,0,11,0.55
2013-7-14,88.2,79.7,73.2,78.1,74.7,72.0,97,86,67,30.19,30.05,13,1,13,0.18
2013-7-15,89.1,80.8,74.5,78.6,75.4,73.2,97,85,66,30.22,30.16,7,1,13,0.00
2013-7-16,90.9,80.3,73.4,80.4,75.0,72.9,98,85,60,30.25,30.16,8,0,8,0.09
2013-7-17,93.0,79.6,72.3,79.0,74.2,69.8,98,85,55,30.20,30.06,9,0,9,0.00
2013-7-18,90.0,77.7,70.5,78.8,74.3,70.0,98,90,66,30.14,30.05,6,0,6,0.10
2013-7-19,89.8,79.5,70.9,77.5,74.2,70.3,99,85,65,30.10,29.99,10,0,10,0.00
2013-7-20,88.5,79.2,73.9,77.9,74.6,71.8,97,86,68,30.06,29.97,11,0,13,0.01
2013-7-21,87.3,77.7,72.9,78.6,74.5,71.4,97,90,71,30.04,29.92,8,0,9,0.16
2013-7-22,88.7,80.1,73.6,78.4,74.8,72.5,97,85,67,30.00,29.88,8,0,10,0.00
2013-7-23,88.5,80.4,75.0,76.6,74.3,72.5,95,83,64,29.92,29.77,9,0,9,0.00
2013-7-24,85.3,78.5,72.3,78.3,74.8,70.3,95,89,76,29.82,29.73,5,0,5,0.04
2013-7-25,90.0,80.4,72.3,77.9,74.0,71.4,98,82,58,29.96,29.75,5,0,6,0.00
2013-7-26,89.1,79.5,71.8,77.4,74.2,70.2,95,85,66,30.04,29.95,9,1,9,0.00
2013-7-27,89.6,78.5,72.9,79.9,75.1,72.1,98,90,69,30.02,29.88,10,0,11,0.06
2013-7-28,86.4,79.6,74.8,78.3,75.9,73.8,97,89,73,30.00,29.90,6,0,7,0.00
2013-7-29,92.7,78.1,71.2,79.7,74.5,69.6,98,90,60,30.13,29.99,11,0,12,3.13
2013-7-30,89.4,78.9,71.8,79.9,75.3,71.4,99,90,68,30.16,30.08,8,0,8,0.00
2013-7-31,87.1,77.4,73.4,78.8,75.0,71.2,99,93,70,30.11,30.00,12,0,12,0.88
2013-8-1,84.4,77.1,72.9,77.0,74.4,72.3,99,92,77,30.00,29.90,7,0,7,0.03
2013-8-2,89.8,79.3,73.2,79.9,75.3,72.0,97,88,72,30.02,29.91,9,0,9,0.00
2013-8-3,91.9,81.7,73.9,80.1,76.5,73.4,99,86,61,30.03,29.90,6,0,7,0.00
2013-8-4,92.1,82.4,74.8,79.0,76.1,74.1,98,82,58,29.98,29.86,6,0,6,0.00
2013-8-5,87.1,79.1,71.4,74.8,71.0,66.4,96,78,57,30.03,29.94,8,1,10,0.00
2013-8-6,88.0,77.8,68.7,74.8,71.0,67.5,96,81,58,30.02,29.93,9,1,9,0.00
2013-8-7,88.0,78.7,70.9,75.7,72.4,69.6,96,82,57,30.05,29.97,7,0,8,0.00
2013-8-8,89.8,78.7,71.8,79.5,74.8,70.9,98,89,65,30.05,29.98,7,0,9,0.52
2013-8-9,91.6,81.9,74.5,80.2,76.2,74.1,99,84,62,30.09,29.99,7,0,8,0.00
2013-8-10,91.9,82.1,73.9,79.7,76.6,73.4,99,85,61,30.11,30.03,8,0,8,0.00
2013-8-11,93.4,83.6,75.7,80.1,76.7,74.1,98,82,56,30.12,30.02,6,0,6,0.00
2013-8-12,93.9,84.8,76.6,79.9,77.5,74.5,95,80,57,30.07,29.93,5,0,7,0.00
2013-8-13,93.6,84.4,76.3,81.1,78.0,75.4,98,82,62,29.96,29.81,7,0,8,0.08
2013-8-14,85.5,78.4,74.1,79.3,75.6,73.2,98,92,78,29.98,29.83,5,0,7,1.09
2013-8-15,74.1,67.7,64.0,73.6,67.1,63.5,98,98,96,30.08,29.95,11,0,12,1.10
2013-8-16,76.5,71.1,66.4,73.8,69.5,65.8,99,95,89,30.06,29.99,6,0,7,0.03
2013-8-17,77.4,72.5,70.3,73.6,70.8,69.4,98,95,87,30.13,30.00,5,0,6,0.02
2013-8-18,89.1,78.2,70.9,78.4,73.6,70.0,98,87,66,30.17,30.08,8,0,9,0.11
2013-8-19,88.9,77.9,73.8,79.5,75.5,73.2,99,93,70,30.12,30.01,8,0,8,0.50
2013-8-20,89.4,77.3,73.6,79.9,75.3,73.0,99,94,70,30.14,30.03,9,0,9,0.32
2013-8-21,90.0,79.5,72.1,80.2,75.5,71.8,99,89,64,30.19,30.09,8,0,8,0.00
2013-8-22,89.1,79.9,73.9,79.3,75.5,73.4,99,87,66,30.13,30.00,6,0,6,0.00
2013-8-23,89.2,79.0,72.1,77.0,74.0,70.5,98,86,61,30.04,29.93,8,0,9,0.00
2013-8-24,82.9,76.3,71.8,75.6,72.7,68.5,98,89,73,30.20,29.98,8,0,9,0.22
2013-8-25,83.8,74.7,66.4,70.5,66.3,61.5,95,77,49,30.28,30.19,9,1,9,0.00
2013-8-26,84.0,74.5,66.4,70.9,67.2,63.1,96,79,61,30.25,30.10,6,0,7,0.00
2013-8-27,84.6,74.3,64.8,72.3,68.2,64.2,99,83,60,30.12,29.98,6,0,6,0.01
2013-8-28,89.1,78.1,69.4,75.2,71.4,68.2,96,81,61,30.01,29.91,5,0,5,0.00
2013-8-29,91.8,81.2,72.0,79.7,74.8,70.7,96,82,62,29.96,29.83,9,0,9,0.07
2013-8-30,88.2,79.5,74.5,78.1,75.0,73.2,97,87,66,29.99,29.89,7,0,9,0.00
2013-8-31,90.0,79.7,72.1,78.3,74.7,71.4,99,86,61,29.96,29.86,6,0,6,0.00
2013-9-1,91.8,81.9,74.1,79.2,76.3,73.6,99,84,60,29.93,29.82,8,0,8,0.00
2013-9-2,90.9,80.5,72.1,80.6,76.2,70.0,97,87,66,29.92,29.81,10,0,11,0.42
2013-9-3,90.7,79.7,72.0,78.8,74.1,69.4,98,84,64,29.93,29.81,8,0,8,0.00
2013-9-4,91.8,80.4,70.5,79.5,74.2,69.6,97,82,60,30.06,29.92,6,0,6,0.00
2013-9-5,90.0,80.6,73.6,78.8,74.1,71.2,97,82,59,30.06,29.98,4,0,4,0.00
2013-9-6,89.2,78.8,71.2,72.5,69.7,65.3,97,76,48,30.08,29.99,7,0,7,0.00
2013-9-7,87.3,76.3,68.9,74.5,68.8,64.6,97,80,52,30.06,29.96,9,0,9,0.00
2013-9-8,88.9,76.6,66.0,74.8,70.4,65.5,98,83,55,29.98,29.88,7,0,7,0.00
2013-9-9,89.1,77.8,69.6,76.8,71.9,68.7,98,83,61,30.11,29.95,8,0,9,0.00
2013-9-10,90.5,78.3,69.6,76.3,71.6,68.0,97,82,55,30.19,30.09,11,1,11,0.00
2013-9-11,89.8,78.1,70.9,76.6,71.4,66.7,97,81,53,30.17,30.06,8,0,9,0.00
2013-9-12,90.5,78.2,67.8,74.3,70.5,66.9,98,80,49,30.07,29.86,6,0,7,0.00
2013-9-13,90.9,78.9,72.7,76.5,73.0,70.5,97,83,58,29.86,29.71,5,0,5,0.42
2013-9-14,83.7,74.8,66.6,73.9,68.9,61.5,98,82,70,30.04,29.77,7,0,7,0.00
2013-9-15,89.1,77.0,66.9,77.0,71.2,65.5,96,84,57,30.12,30.03,10,1,10,0.00
2013-9-16,88.5,76.4,70.9,78.3,73.1,70.3,99,90,68,30.11,29.99,7,0,7,0.08
2013-9-17,81.7,73.5,68.2,70.9,66.5,63.0,98,80,58,30.19,30.05,8,1,8,0.01
2013-9-18,80.4,70.3,61.0,63.7,59.0,54.1,89,69,45,30.20,30.11,8,1,13,0.00
2013-9-19,83.8,72.2,61.5,68.5,63.4,57.9,94,75,51,30.14,30.04,7,0,7,0.00
2013-9-20,85.8,73.3,63.9,71.4,66.8,62.8,98,82,58,30.07,29.93,8,0,8,0.00
2013-9-21,87.8,75.4,64.9,74.7,69.9,64.0,98,84,59,29.94,29.71,10,0,10,0.00
2013-9-22,78.1,73.0,66.9,73.0,69.2,66.0,97,88,73,29.85,29.68,6,0,6,0.13
2013-9-23,81.9,70.2,60.4,67.1,62.4,58.5,98,79,48,30.02,29.84,7,0,7,0.00
2013-9-24,81.1,69.5,60.1,65.7,62.2,58.5,96,79,57,30.03,29.89,9,1,9,0.00
2013-9-25,79.7,71.5,65.8,69.8,65.9,61.5,94,83,69,29.90,29.77,8,1,8,0.01
2013-9-26,74.1,67.1,62.1,67.3,64.4,59.9,98,91,77,29.94,29.78,6,0,7,0.84
2013-9-27,79.3,68.6,60.4,66.7,61.4,58.1,94,79,61,30.09,29.93,7,1,9,0.00
2013-9-28,76.8,67.0,58.5,64.8,60.3,55.6,91,80,65,30.14,30.06,7,1,8,0.00
2013-9-29,77.4,66.8,58.6,61.5,59.0,56.8,95,78,55,30.09,29.99,8,1,8,0.00
2013-9-30,77.2,64.8,54.5,63.0,58.8,53.6,97,83,54,30.05,29.96,7,0,7,0.00
2013-10-1,80.2,67.0,55.8,64.9,59.5,54.9,98,80,47,30.12,30.02,6,0,6,0.00
2013-10-2,85.5,69.7,57.6,66.7,61.9,56.7,98,79,47,30.13,30.04,5,0,6,0.00
2013-10-3,84.7,70.6,59.2,71.6,65.5,58.3,98,85,58,30.12,30.05,7,0,9,0.00
2013-10-4,86.4,72.9,63.0,74.3,67.3,62.4,99,85,52,30.12,30.03,5,0,5,0.00
2013-10-5,87.4,74.0,65.1,72.9,67.6,64.6,99,83,55,30.10,30.01,7,0,8,0.00
2013-10-6,85.5,74.5,65.5,77.5,71.0,64.9,99,90,72,30.04,29.90,9,0,9,0.14
2013-10-7,82.2,75.3,72.3,76.5,73.6,71.8,98,95,80,29.91,29.77,6,0,6,0.84
2013-10-8,74.5,65.7,58.8,73.9,63.4,56.8,98,92,85,30.05,29.81,10,1,11,0.02
2013-10-9,74.7,65.0,58.5,64.2,59.5,55.6,92,83,68,30.09,30.00,10,1,10,0.00
2013-10-10,76.5,65.3,55.4,63.7,59.5,53.8,96,83,62,30.04,29.93,7,1,7,0.00
2013-10-11,80.4,69.6,63.0,66.7,63.6,61.3,95,83,57,29.99,29.88,7,0,7,0.00
2013-10-12,82.0,71.4,63.0,68.5,65.5,61.9,97,83,59,30.03,29.91,5,0,5,0.00
2013-10-13,73.6,69.6,66.6,67.3,66.1,64.2,95,89,78,30.12,30.01,8,0,8,0.00
2013-10-14,74.7,69.5,66.6,68.4,65.9,63.9,93,88,79,30.10,30.03,10,1,10,0.00
2013-10-15,72.9,66.5,62.1,63.9,61.6,58.8,96,85,68,30.09,29.98,11,1,11,0.00
2013-10-16,71.8,67.1,61.9,66.2,63.9,60.8,97,90,79,30.02,29.94,5,0,6,0.00
2013-10-17,82.6,69.6,58.3,70.5,64.7,57.2,97,86,63,29.98,29.86,7,0,7,0.00
2013-10-18,82.2,72.6,66.0,73.4,69.6,65.5,99,91,74,29.97,29.87,5,0,5,0.00
2013-10-19,82.2,73.0,67.3,73.0,69.5,61.5,99,89,71,29.94,29.83,6,0,7,0.02
2013-10-20,72.0,65.6,59.2,61.9,59.3,55.6,90,80,67,30.05,29.89,6,0,9,0.01
2013-10-21,69.4,63.1,57.2,62.8,58.4,53.8,90,85,73,30.10,29.99,4,0,5,0.00
2013-10-22,68.7,64.4,60.6,63.0,60.5,58.1,94,88,73,30.01,29.83,3,0,3,0.02
2013-10-23,72.7,63.6,53.8,62.1,52.7,39.7,97,71,35,30.00,29.75,13,1,13,0.01
2013-10-24,64.2,52.8,40.5,47.7,41.8,36.1,93,69,41,30.19,30.00,9,0,9,0.00
2013-10-25,62.4,51.9,45.0,46.9,42.8,37.9,97,73,46,30.34,30.13,11,1,11,0.00
2013-10-26,65.7,50.3,38.1,47.7,40.9,34.3,94,72,45,30.33,30.14,6,0,6,0.00
2013-10-27,72.1,55.3,40.5,56.5,47.8,38.8,95,79,48,30.15,30.06,5,0,5,0.00
2013-10-28,73.6,60.8,53.1,61.9,56.5,52.0,97,87,61,30.24,30.11,4,0,4,0.00
2013-10-29,77.4,61.9,50.4,62.6,55.8,49.6,98,83,51,30.31,30.21,6,0,7,0.00
2013-10-30,78.1,63.4,52.5,64.8,57.5,52.0,99,83,54,30.30,30.16,4,0,4,0.00
2013-10-31,82.0,67.5,52.5,68.9,62.1,51.4,98,84,60,30.19,29.97,10,1,10,0.00
2013-11-1,80.1,73.6,69.1,70.5,69.3,67.3,97,87,71,29.97,29.73,10,0,10,0.72
2013-11-2,70.2,64.5,52.9,68.5,60.2,50.5,98,87,57,29.94,29.72,6,0,6,0.46
2013-11-3,66.9,55.3,46.9,50.5,45.4,41.5,95,72,43,30.28,29.94,8,0,11,0.00
2013-11-4,66.2,54.4,45.9,44.4,41.4,36.5,88,64,36,30.42,30.27,10,1,10,0.00
2013-11-5,65.1,53.7,42.4,58.6,49.2,38.7,94,85,71,30.43,30.30,7,1,7,0.02
2013-11-6,75.0,64.4,53.2,65.8,60.2,51.8,96,87,71,30.30,30.07,7,0,7,0.00
2013-11-7,76.8,67.1,60.4,66.7,63.9,54.5,98,90,69,30.07,29.91,6,0,6,0.00
2013-11-8,61.5,51.9,39.0,54.3,38.1,33.1,94,62,37,30.29,30.03,10,1,10,0.00
2013-11-9,63.3,51.7,38.7,53.4,45.2,36.1,95,80,57,30.34,30.22,6,0,6,0.00
2013-11-10,69.6,57.1,47.7,55.9,50.6,46.6,96,81,50,30.25,30.13,6,0,6,0.00
2013-11-11,65.8,54.2,45.9,49.1,45.2,39.0,96,73,49,30.28,30.15,8,0,8,0.00
2013-11-12,71.8,57.0,41.4,52.3,45.3,32.2,97,68,39,30.34,29.99,20,1,22,0.00
2013-11-13,49.5,40.0,30.4,32.7,26.8,21.2,87,61,36,30.50,30.33,16,2,17,0.00
2013-11-14,61.2,44.5,28.2,44.6,35.9,25.3,94,74,49,30.48,30.31,5,0,6,0.00
2013-11-15,62.6,55.3,43.5,58.8,52.8,41.5,97,91,83,30.31,30.13,6,0,6,0.00
2013-11-16,76.6,63.8,55.9,64.6,59.6,55.0,98,87,63,30.20,30.12,6,0,6,0.00
2013-11-17,79.0,65.4,55.0,71.6,63.7,54.5,98,95,77,30.17,29.97,8,0,8,0.02
2013-11-18,82.0,71.9,62.1,72.3,67.2,48.7,99,86,61,29.98,29.80,10,0,10,0.00
2013-11-19,62.6,55.1,44.8,49.5,38.5,35.4,79,55,37,30.19,29.90,9,1,10,0.00
2013-11-20,59.4,51.7,43.7,48.0,42.4,35.8,78,71,63,30.32,30.18,12,2,12,0.00
2013-11-21,69.6,58.8,51.4,60.8,53.4,45.7,97,83,66,30.38,30.29,6,1,7,0.00
2013-11-22,76.5,65.0,58.3,67.6,62.9,57.6,98,93,72,30.32,30.13,8,0,8,0.06
2013-11-23,68.0,63.1,57.7,66.4,61.6,54.1,99,95,87,30.13,29.98,6,0,7,0.02
2013-11-24,57.7,43.3,31.8,54.0,25.2,16.7,88,50,31,30.51,30.09,15,2,16,0.00
2013-11-25,50.9,40.9,30.4,41.5,26.2,12.6,82,57,36,30.52,30.24,11,1,11,0.00
2013-11-26,71.1,58.4,42.8,70.5,56.3,37.8,98,93,79,30.24,29.57,14,1,15,0.04
2013-11-27,69.6,53.5,36.9,68.0,51.4,34.3,98,93,86,30.20,29.48,16,2,18,0.00
2013-11-28,47.1,37.0,29.7,34.3,28.9,23.9,95,75,48,30.48,30.20,9,1,10,0.00
2013-11-29,57.6,42.5,30.2,37.4,33.1,29.1,96,73,42,30.52,30.44,10,1,10,0.00
2013-11-30,55.6,46.3,35.1,43.3,37.1,29.8,82,71,58,30.52,30.30,9,1,9,0.00
2013-12-1,60.1,52.2,45.9,52.5,47.5,41.5,95,84,73,30.30,29.99,6,0,6,0.00
2013-12-2,63.9,54.0,44.4,52.3,48.8,43.3,96,84,54,29.99,29.80,7,0,7,0.00
2013-12-3,70.2,56.3,43.9,55.6,51.0,42.8,97,84,58,29.97,29.87,10,0,10,0.05
2013-12-4,76.3,63.6,55.8,66.4,60.1,55.2,98,89,69,30.09,29.96,7,0,8,0.00
2013-12-5,80.2,66.6,54.3,68.4,62.2,53.8,99,87,62,30.16,30.06,9,0,9,0.00
2013-12-6,82.0,71.6,65.7,70.9,66.8,64.0,96,85,66,30.14,30.05,14,1,14,0.00
2013-12-7,76.3,62.7,47.5,70.0,60.3,46.2,98,92,81,30.33,30.07,9,1,9,0.15
2013-12-8,47.5,45.4,43.9,46.4,44.4,42.8,97,96,96,30.34,30.24,8,1,8,0.08
2013-12-9,71.2,54.8,43.5,66.6,53.1,42.8,98,94,84,30.25,30.04,5,0,5,0.01
2013-12-10,75.4,63.0,47.3,69.6,59.4,44.1,98,89,70,30.30,29.94,16,1,16,0.04
2013-12-11,57.4,46.2,35.6,44.4,36.9,31.3,90,72,47,30.44,30.27,6,0,8,0.00
2013-12-12,54.9,42.0,31.5,39.2,32.7,28.4,96,73,39,30.39,30.26,11,1,11,0.00
2013-12-13,58.8,43.1,28.2,38.7,31.6,24.8,94,68,30,30.41,30.23,7,0,8,0.00
2013-12-14,69.3,60.0,46.2,67.1,57.1,38.5,97,90,74,30.23,29.77,12,1,12,0.91
2013-12-15,65.1,55.7,42.1,64.2,51.6,39.4,97,86,68,30.12,29.76,14,-3,14,0.07
2013-12-16,60.4,45.4,33.8,42.1,38.1,32.0,95,78,45,30.22,30.12,7,0,7,0.00
2013-12-17,65.5,50.2,35.1,45.1,39.0,34.0,97,70,36,30.22,30.06,9,1,9,0.00
2013-12-18,57.2,47.1,34.5,39.6,34.8,28.4,93,65,34,30.32,30.09,8,1,8,0.00
2013-12-19,65.1,47.2,31.1,50.0,40.0,29.8,96,79,43,30.36,30.23,5,0,9,0.00
2013-12-20,73.2,57.7,45.9,59.4,52.7,44.2,96,85,61,30.25,30.14,8,0,8,0.00
2013-12-21,79.3,65.3,51.1,69.1,61.7,50.0,97,89,70,30.17,30.05,12,1,14,0.00
2013-12-22,81.1,72.3,66.6,72.1,68.8,65.3,97,89,73,30.11,30.05,14,1,16,0.00
2013-12-23,81.0,69.8,58.3,71.1,66.8,57.4,97,91,68,30.12,30.00,14,1,14,0.29
2013-12-24,58.6,52.7,41.0,57.4,44.4,32.5,97,75,47,30.37,30.05,12,1,12,0.05
2013-12-25,50.4,41.0,31.6,34.0,30.0,23.9,75,65,50,30.48,30.33,10,1,12,0.00
2013-12-26,49.1,43.9,38.3,43.7,39.0,30.2,94,83,67,30.34,30.23,8,1,9,0.01
2013-12-27,58.1,46.9,39.6,40.3,36.6,32.9,86,69,40,30.40,30.30,8,1,9,0.00
2013-12-28,62.8,49.2,33.6,52.7,40.2,30.7,96,73,40,30.39,30.04,7,0,7,0.03
2013-12-29,73.0,63.1,52.3,69.1,59.8,48.7,99,90,64,30.04,29.79,19,1,19,0.67
2013-12-30,60.4,51.6,42.6,50.2,46.6,40.8,96,83,67,30.16,29.96,7,0,7,0.00
2013-12-31,55.9,51.0,43.2,47.8,44.5,39.6,90,79,60,30.36,30.13,5,1,10,0.00
2014-1-1,52.5,46.0,41.2,47.3,42.4,37.6,95,87,74,30.36,30.12,2,0,6,0.22
2014-1-2,57.0,51.2,46.2,56.5,49.6,39.0,98,95,70,30.12,29.65,8,1,14,0.73